Map

Track Data

SID SEASON NUMBER BASIN SUBBASIN NAME ISO_TIME NATURE LAT LON WMO_WIND WMO_PRES WMO_AGENCY TRACK_TYPE DIST2LAND LANDFALL IFLAG USA_AGENCY USA_ATCF_ID USA_LAT USA_LON USA_RECORD USA_STATUS USA_WIND USA_PRES USA_SSHS USA_R34_NE USA_R34_SE USA_R34_SW USA_R34_NW USA_R50_NE USA_R50_SE USA_R50_SW USA_R50_NW USA_R64_NE USA_R64_SE USA_R64_SW USA_R64_NW USA_POCI USA_ROCI USA_RMW USA_EYE TOKYO_LAT TOKYO_LON TOKYO_GRADE TOKYO_WIND TOKYO_PRES TOKYO_R50_DIR TOKYO_R50_LONG TOKYO_R50_SHORT TOKYO_R30_DIR TOKYO_R30_LONG TOKYO_R30_SHORT TOKYO_LAND CMA_LAT CMA_LON CMA_CAT CMA_WIND CMA_PRES HKO_LAT HKO_LON HKO_CAT HKO_WIND HKO_PRES NEWDELHI_LAT NEWDELHI_LON NEWDELHI_GRADE NEWDELHI_WIND NEWDELHI_PRES NEWDELHI_CI NEWDELHI_DP NEWDELHI_POCI REUNION_LAT REUNION_LON REUNION_TYPE REUNION_WIND REUNION_PRES REUNION_TNUM REUNION_CI REUNION_RMW REUNION_R34_NE REUNION_R34_SE REUNION_R34_SW REUNION_R34_NW REUNION_R50_NE REUNION_R50_SE REUNION_R50_SW REUNION_R50_NW REUNION_R64_NE REUNION_R64_SE REUNION_R64_SW REUNION_R64_NW BOM_LAT BOM_LON BOM_TYPE BOM_WIND BOM_PRES BOM_TNUM BOM_CI BOM_RMW BOM_R34_NE BOM_R34_SE BOM_R34_SW BOM_R34_NW BOM_R50_NE BOM_R50_SE BOM_R50_SW BOM_R50_NW BOM_R64_NE BOM_R64_SE BOM_R64_SW BOM_R64_NW BOM_ROCI BOM_POCI BOM_EYE BOM_POS_METHOD BOM_PRES_METHOD NADI_LAT NADI_LON NADI_CAT NADI_WIND NADI_PRES WELLINGTON_LAT WELLINGTON_LON WELLINGTON_WIND WELLINGTON_PRES DS824_LAT DS824_LON DS824_STAGE DS824_WIND DS824_PRES TD9636_LAT TD9636_LON TD9636_STAGE TD9636_WIND TD9636_PRES TD9635_LAT TD9635_LON TD9635_WIND TD9635_PRES TD9635_ROCI NEUMANN_LAT NEUMANN_LON NEUMANN_CLASS NEUMANN_WIND NEUMANN_PRES MLC_LAT MLC_LON MLC_CLASS MLC_WIND MLC_PRES USA_GUST BOM_GUST BOM_GUST_PER REUNION_GUST REUNION_GUST_PER USA_SEAHGT USA_SEARAD_NE USA_SEARAD_SE USA_SEARAD_SW USA_SEARAD_NW STORM_SPEED STORM_DIR
1985033S12157 1985 16 SP EA NOT_NAMED 1985-02-02 00:00:00 TS -11.5333 156.700 main 346 346 O_________O_O_ jtwc_sh SH181985 -11.5000 156.700 XX 30 -5 -11.6000 156.700 1 30 -11.5000 156.700 TC 30 11 184
1985033S12157 1985 16 SP EA NOT_NAMED 1985-02-02 03:00:00 TS -12.0900 156.665 main 410 410 P_________P_P_ SH181985 -12.0750 156.687 XX 32 -5 -12.1199 156.621 1 31 -12.0750 156.687 TC 32 11 187
1985033S12157 1985 16 SP EA NOT_NAMED 1985-02-02 06:00:00 TS -12.6073 156.568 main 466 466 O_________P_O_ jtwc_sh SH181985 -12.6000 156.600 XX 35 -5 -12.6219 156.504 1 32 -12.6000 156.600 TC 35 10 197
1985033S12157 1985 16 SP EA NOT_NAMED 1985-02-02 09:00:00 TS -13.0542 156.353 main 523 523 P_________P_P_ SH181985 -13.0374 156.375 XX 35 -5 -13.0880 156.310 1 33 -13.0374 156.375 TC 35 10 214
1985033S12157 1985 16 SP EA NOT_NAMED 1985-02-02 12:00:00 TS -13.4333 156.000 main 572 572 O_________O_O_ jtwc_sh SH181985 -13.4000 156.000 XX 35 -5 -13.5000 156.000 2 35 -13.4000 156.000 TC 35 11 229
1985033S12157 1985 16 SP EA NOT_NAMED 1985-02-02 15:00:00 TS -13.7724 155.509 main 633 602 P_________P_P_ SH181985 -13.7376 155.488 XX 35 -5 -13.8421 155.550 2 35 -13.7376 155.488 TC 35 12 240
1985033S12157 1985 16 SP EA NOT_NAMED 1985-02-02 18:00:00 TS -14.0361 154.933 main 594 569 O_________P_O_ jtwc_sh SH181985 -14.0000 154.900 XX 35 -5 -14.1083 154.998 2 35 -14.0000 154.900 TC 35 12 248
1985033S12157 1985 16 SP EA NOT_NAMED 1985-02-02 21:00:00 TS -14.2284 154.361 main 569 533 P_________P_P_ SH181985 -14.1949 154.342 XX 35 -5 -14.2952 154.397 2 35 -14.1949 154.342 TC 35 11 255
1985033S12157 1985 16 SP EA NOT_NAMED 1985-02-03 00:00:00 TS -14.3333 153.800 main 533 510 O_________O_O_ jtwc_sh SH181985 -14.3000 153.800 XX 35 -5 -14.4000 153.800 2 35 -14.3000 153.800 TC 35 11 262
1985033S12157 1985 16 SP EA NOT_NAMED 1985-02-03 03:00:00 TS -14.3746 153.286 main 510 472 P_________P_P_ SH181985 -14.3373 153.292 XX 35 -5 -14.4491 153.273 2 35 -14.3373 153.292 TC 35 10 270
1985033S12157 1985 16 SP EA NOT_NAMED 1985-02-03 06:00:00 TS -14.3399 152.787 main 472 449 O_________P_O_ jtwc_sh SH181985 -14.3000 152.800 XX 35 -5 -14.4196 152.762 2 35 -14.3000 152.800 TC 35 10 277
1985033S12157 1985 16 SP EA NOT_NAMED 1985-02-03 09:00:00 TS -14.2634 152.285 main 449 409 P_________P_P_ SH181985 -14.2299 152.293 XX 35 -5 -14.3304 152.270 2 35 -14.2299 152.293 TC 35 10 282
1985033S12157 1985 16 SP EA NOT_NAMED 1985-02-03 12:00:00 TS -14.1333 151.800 main 409 385 O_________O_O_ jtwc_sh SH181985 -14.1000 151.800 XX 35 -5 -14.2000 151.800 2 35 -14.1000 151.800 TC 35 10 289
1985033S12157 1985 16 SP EA NOT_NAMED 1985-02-03 15:00:00 TS -13.9502 151.353 main 385 353 P_________P_P_ SH181985 -13.9074 151.335 XX 35 -5 -14.0356 151.390 2 35 -13.9074 151.335 TC 35 9 295
1985033S12157 1985 16 SP EA NOT_NAMED 1985-02-03 18:00:00 TS -13.7470 150.931 main 340 325 O_________P_O_ jtwc_sh SH181985 -13.7000 150.900 XX 35 -5 -13.8411 150.994 2 35 -13.7000 150.900 TC 35 9 296
1985033S12157 1985 16 SP EA NOT_NAMED 1985-02-03 21:00:00 TS -13.5685 150.546 main 324 302 P_________P_P_ SH181985 -13.5272 150.530 XX 35 -5 -13.6511 150.577 2 35 -13.5272 150.530 TC 35 9 291
1985033S12157 1985 16 SP EA NOT_NAMED 1985-02-04 00:00:00 TS -13.4333 150.100 main 302 302 O_________O_O_ jtwc_sh SH181985 -13.4000 150.100 XX 35 -5 -13.5000 150.100 2 35 -13.4000 150.100 TC 35 11 281
1985033S12157 1985 16 SP EA NOT_NAMED 1985-02-04 03:00:00 TS -13.3586 149.484 main 311 307 P_________P_P_ SH181985 -13.3276 149.488 XX 35 -5 -13.4205 149.478 2 35 -13.3276 149.488 TC 35 13 275
1985033S12157 1985 16 SP EA NOT_NAMED 1985-02-04 06:00:00 TS -13.3279 148.800 main 325 325 O_________P_O_ jtwc_sh SH181985 -13.3000 148.800 XX 35 -5 -13.3837 148.800 2 35 -13.3000 148.800 TC 35 13 272
1985033S12157 1985 16 SP EA NOT_NAMED 1985-02-04 09:00:00 TS -13.3166 148.126 main 347 304 P_________P_P_ SH181985 -13.2850 148.128 XX 35 -5 -13.3799 148.122 2 35 -13.2850 148.128 TC 35 13 270
1985033S12157 1985 16 SP EA NOT_NAMED 1985-02-04 12:00:00 TS -13.3333 147.500 main 304 256 O_________O_O_ jtwc_sh SH181985 -13.3000 147.500 XX 35 -5 -13.4000 147.500 2 35 -13.3000 147.500 TC 35 11 267
1985033S12157 1985 16 SP EA NOT_NAMED 1985-02-04 15:00:00 TS -13.3776 146.966 main 256 218 P_________P_P_ SH181985 -13.3424 146.955 XX 35 -5 -13.4481 146.986 2 35 -13.3424 146.955 TC 35 10 264
1985033S12157 1985 16 SP EA NOT_NAMED 1985-02-04 18:00:00 TS -13.4381 146.513 main 218 184 O_________P_O_ jtwc_sh SH181985 -13.4000 146.500 XX 35 -5 -13.5143 146.538 2 35 -13.4000 146.500 TC 35 8 261
1985033S12157 1985 16 SP EA NOT_NAMED 1985-02-04 21:00:00 TS -13.5010 146.124 main 184 164 P_________P_P_ SH181985 -13.4649 146.113 XX 35 -5 -13.5733 146.146 2 35 -13.4649 146.113 TC 35 7 262
1985033S12157 1985 16 SP EA NOT_NAMED 1985-02-05 00:00:00 TS -13.5333 145.800 main 164 139 O_________O_O_ jtwc_sh SH181985 -13.5000 145.800 XX 35 -5 -13.6000 145.800 2 35 -13.5000 145.800 TC 35 6 271
1985033S12157 1985 16 SP EA NOT_NAMED 1985-02-05 03:00:00 TS -13.4950 145.522 main 139 132 P_________P_P_ SH181985 -13.4724 145.542 XX 35 -5 -13.5402 145.482 2 35 -13.4724 145.542 TC 35 5 283
1985033S12157 1985 16 SP EA NOT_NAMED 1985-02-05 06:00:00 TS -13.4165 145.268 main 132 119 O_________P_O_ jtwc_sh SH181985 -13.4000 145.300 XX 35 -5 -13.4495 145.205 2 35 -13.4000 145.300 TC 35 6 289
1985033S12157 1985 16 SP EA NOT_NAMED 1985-02-05 09:00:00 TS -13.3147 144.983 main 124 116 P_________P_P_ SH181985 -13.2925 145.000 XX 35 -5 -13.3591 144.950 2 35 -13.2925 145.000 TC 35 6 288
1985033S12157 1985 16 SP EA NOT_NAMED 1985-02-05 12:00:00 TS -13.2333 144.700 main 121 89 O_________O_O_ jtwc_sh SH181985 -13.2000 144.700 XX 35 -5 -13.3000 144.700 2 35 -13.2000 144.700 TC 35 6 282
1985033S12157 1985 16 SP EA NOT_NAMED 1985-02-05 15:00:00 TS -13.2045 144.428 main 89 68 P_________P_P_ SH181985 -13.1699 144.450 XX 35 -5 -13.2736 144.384 2 33 -13.1699 144.450 TC 35 5 270
1985033S12157 1985 16 SP EA NOT_NAMED 1985-02-05 18:00:00 TS -13.2292 144.158 main 68 34 O_________P_O_ jtwc_sh SH181985 -13.2000 144.200 XX 35 -5 -13.2877 144.075 2 32 -13.2000 144.200 TC 35 6 261
1985033S12157 1985 16 SP EA NOT_NAMED 1985-02-05 21:00:00 TS -13.2944 143.853 main 34 0 P_________P_P_ SH181985 -13.2626 143.878 XX 32 -5 -13.3580 143.803 2 31 -13.2626 143.878 TC 32 6 249
1985033S12157 1985 16 SP EA NOT_NAMED 1985-02-06 00:00:00 TS -13.4333 143.600 main 0 0 O_________O_O_ jtwc_sh SH181985 -13.4000 143.600 XX 30 -5 -13.5000 143.600 1 30 -13.4000 143.600 TC 30 5 227
1985033S12157 1985 16 SP EA NOT_NAMED 1985-02-06 03:00:00 TS -13.6494 143.461 main 0 0 P_________P_P_ SH181985 -13.6124 143.448 XX 30 -5 -13.7233 143.487 1 28 -13.6124 143.448 TC 30 5 199
1985033S12157 1985 16 SP EA NOT_NAMED 1985-02-06 06:00:00 TS -13.9374 143.417 main 0 0 O_________P_O_ jtwc_sh SH181985 -13.9000 143.400 XX 30 -5 -14.0123 143.450 1 27 -13.9000 143.400 TC 30 6 182
1985033S12157 1985 16 SP EA NOT_NAMED 1985-02-06 09:00:00 TS -14.2734 143.441 main 0 0 P_________P_P_ SH181985 -14.2375 143.430 XX 27 -5 -14.3452 143.462 1 26 -14.2375 143.430 TC 27 7 174
1985033S12157 1985 16 SP EA NOT_NAMED 1985-02-06 12:00:00 TS -14.6333 143.500 main 0 O_________O_O_ jtwc_sh SH181985 -14.6000 143.500 XX 25 -5 -14.7000 143.500 1 25 -14.6000 143.500 TC 25 7 171

Digital Typhoon Data and Search

About IBTrACS Database

This database is a web-friendly format of International Best Track Archive for Climate Stewardship (IBTrACS), a global best track data archive curated by NOAA dating back to 1842.

Updated: 2021-10-21